Time;durP1;ratioP1;P1;durP2;ratioP2;P2;SDS_P1;SDS_P2;PMS_P1;PMS_P2;Temp;Humidity;BMP_temperature;BMP_pressure;BME280_temperature;BME280_humidity;BME280_pressure;Samples;Min_cycle;Max_cycle;Signal;HPM_P1;HPM_P2
2023/04/09 00:01:08;;;;;;;;;31.25;26.50;;;;;9.11;58.63;102063.41;6277313;22;45241;-72
2023/04/09 00:03:34;;;;;;;;;33.75;30.75;;;;;9.08;58.79;102072.06;6277447;22;45210;-72
2023/04/09 00:06:00;;;;;;;;;34.75;25.50;;;;;9.05;58.39;102065.75;6275955;22;45588;-72
2023/04/09 00:08:25;;;;;;;;;21.50;19.00;;;;;9.03;59.07;102070.03;6250058;22;45210;-72
2023/04/09 00:10:52;;;;;;;;;32.75;30.25;;;;;8.98;59.48;102061.88;6277331;22;45246;-72
2023/04/09 00:13:18;;;;;;;;;37.50;27.50;;;;;8.87;57.22;102040.22;6276010;22;45469;-72
2023/04/09 00:15:44;;;;;;;;;40.00;29.50;;;;;8.88;58.73;102041.16;6276996;22;46562;-72
2023/04/09 00:18:10;;;;;;;;;37.00;30.50;;;;;8.93;59.96;102058.09;6277882;22;45160;-72
2023/04/09 00:20:35;;;;;;;;;33.00;27.25;;;;;8.90;59.64;102056.19;6277734;22;45201;-72
2023/04/09 00:23:00;;;;;;;;;29.50;26.50;;;;;8.83;60.39;102040.91;6277718;22;45301;-72
2023/04/09 00:25:27;;;;;;;;;34.75;31.75;;;;;8.90;58.71;102052.66;6248786;22;53532;-72
2023/04/09 00:27:52;;;;;;;;;38.00;30.75;;;;;8.89;59.83;102056.13;6277319;22;45311;-72
2023/04/09 00:30:18;;;;;;;;;39.50;31.00;;;;;8.85;60.10;102044.53;6276868;22;45387;-72
2023/04/09 00:32:43;;;;;;;;;30.75;28.25;;;;;8.80;60.68;102034.59;6277764;22;45446;-72
2023/04/09 00:35:09;;;;;;;;;33.50;29.25;;;;;8.85;59.89;102048.88;6276827;22;45247;-72
2023/04/09 00:37:34;;;;;;;;;40.00;29.75;;;;;8.75;59.32;102042.25;6277244;22;45241;-72
2023/04/09 00:39:59;;;;;;;;;32.00;28.50;;;;;8.76;60.11;102037.88;6248986;22;45342;-72
2023/04/09 00:42:26;;;;;;;;;36.25;34.25;;;;;8.68;60.41;102029.56;6277461;22;45265;-72
2023/04/09 00:44:51;;;;;;;;;37.00;31.50;;;;;8.67;60.11;102038.31;6275729;22;45240;-72
2023/04/09 00:47:17;;;;;;;;;33.50;30.25;;;;;8.69;60.05;102047.22;6277518;22;45153;-72
2023/04/09 00:49:43;;;;;;;;;28.75;25.50;;;;;8.61;60.71;102030.97;6277460;22;45399;-72
2023/04/09 00:52:09;;;;;;;;;39.75;30.50;;;;;8.62;60.31;102037.16;6277072;22;45818;-72
2023/04/09 00:54:36;;;;;;;;;34.75;27.50;;;;;8.62;60.49;102039.78;6277388;22;45282;-72
2023/04/09 00:57:02;;;;;;;;;41.25;34.25;;;;;8.61;60.73;102040.63;6277533;22;45287;-72
2023/04/09 00:59:27;;;;;;;;;36.25;34.00;;;;;8.50;59.98;102032.16;6277375;22;45318;-73
2023/04/09 01:01:52;;;;;;;;;43.75;33.25;;;;;8.48;60.67;102029.41;6277228;22;45259;-72
2023/04/09 01:04:19;;;;;;;;;40.75;33.25;;;;;8.51;60.58;102034.88;6277219;22;45294;-72
2023/04/09 01:06:51;;;;;;;;;36.75;31.50;;;;;8.45;60.12;102026.63;6277057;22;45202;-72
2023/04/09 01:09:40;;;;;;;;;32.25;26.50;;;;;8.45;59.84;102031.00;6277254;22;45531;-72
2023/04/09 01:12:17;;;;;;;;;35.75;29.25;;;;;8.43;60.27;102033.56;6277104;22;45294;-72
2023/04/09 01:14:55;;;;;;;;;39.75;34.00;;;;;8.40;60.84;102035.13;6276912;22;45225;-72
2023/04/09 01:17:26;;;;;;;;;44.00;35.00;;;;;8.38;61.02;102032.38;6277594;22;45341;-72
2023/04/09 01:20:09;;;;;;;;;48.00;35.75;;;;;8.37;60.97;102027.03;6277513;22;45145;-72
2023/04/09 01:23:12;;;;;;;;;47.50;36.00;;;;;8.34;59.70;102029.50;6277513;22;45291;-72
2023/04/09 01:25:43;;;;;;;;;39.50;35.25;;;;;8.31;61.29;102030.22;6276991;22;45308;-72
2023/04/09 01:28:19;;;;;;;;;41.50;34.75;;;;;8.27;61.05;102033.53;6277628;22;45182;-72
2023/04/09 01:30:49;;;;;;;;;34.50;32.25;;;;;8.19;61.84;102024.31;6276006;22;45205;-72
2023/04/09 01:33:17;;;;;;;;;34.00;30.25;;;;;8.17;61.77;102010.16;6277290;22;45430;-72
2023/04/09 01:35:45;;;;;;;;;39.75;35.00;;;;;8.20;61.75;102019.13;6277136;22;46125;-72
2023/04/09 01:38:12;;;;;;;;;45.25;36.00;;;;;8.17;61.89;102013.69;6277177;22;45120;-72
2023/04/09 01:40:38;;;;;;;;;41.75;34.50;;;;;8.13;61.99;102011.72;6276702;22;45279;-72
2023/04/09 01:43:06;;;;;;;;;37.50;32.25;;;;;8.17;62.29;102020.69;6277475;22;45526;-72
2023/04/09 01:45:32;;;;;;;;;44.00;36.25;;;;;8.19;62.21;102021.69;6276559;22;45352;-72
2023/04/09 01:47:58;;;;;;;;;42.75;36.00;;;;;8.14;62.08;102010.00;6277269;22;45626;-72
2023/04/09 01:50:23;;;;;;;;;43.25;36.50;;;;;8.18;62.69;102014.63;6277179;22;45187;-72
2023/04/09 01:52:49;;;;;;;;;41.75;34.25;;;;;8.13;62.01;102005.56;6276926;22;45234;-72
2023/04/09 01:55:15;;;;;;;;;35.50;31.00;;;;;8.18;61.84;102012.00;6276955;22;46234;-72
2023/04/09 01:57:40;;;;;;;;;33.25;31.00;;;;;8.10;62.32;102003.66;6249558;22;45242;-72
2023/04/09 02:00:06;;;;;;;;;37.50;31.75;;;;;8.13;62.14;102006.47;6249201;22;45516;-72
2023/04/09 02:02:41;;;;;;;;;38.00;35.25;;;;;8.04;61.74;101998.97;6277415;22;45264;-72
2023/04/09 02:05:10;;;;;;;;;39.75;35.00;;;;;8.11;62.51;102001.94;6276912;22;45303;-72
2023/04/09 02:07:41;;;;;;;;;32.25;29.00;;;;;8.09;61.71;102009.75;6276742;22;45214;-72
2023/04/09 02:10:08;;;;;;;;;42.25;34.25;;;;;8.01;62.62;101992.63;6277243;22;45263;-72
2023/04/09 02:12:37;;;;;;;;;40.75;35.00;;;;;8.07;62.77;102007.03;6277173;22;45339;-73
2023/04/09 02:15:04;;;;;;;;;37.00;34.50;;;;;8.06;62.62;102002.56;6276422;22;45558;-72
2023/04/09 02:17:29;;;;;;;;;46.25;36.25;;;;;7.95;62.88;101985.28;6276719;22;45204;-72
2023/04/09 02:19:55;;;;;;;;;38.00;35.50;;;;;7.95;63.10;101981.75;6277108;22;45224;-72
2023/04/09 02:22:20;;;;;;;;;40.50;37.25;;;;;8.04;63.12;101996.34;6276453;22;45356;-72
2023/04/09 02:24:45;;;;;;;;;42.50;37.00;;;;;7.97;62.81;101974.88;6276750;22;45390;-72
2023/04/09 02:27:11;;;;;;;;;40.00;33.75;;;;;8.00;62.69;101989.09;6276927;22;45289;-72
2023/04/09 02:29:38;;;;;;;;;36.50;34.50;;;;;8.02;62.79;101989.19;6276480;22;45307;-72
2023/04/09 02:32:04;;;;;;;;;43.00;37.00;;;;;8.00;62.95;101988.19;6276447;22;45244;-72
2023/04/09 02:34:29;;;;;;;;;38.75;34.50;;;;;7.97;62.68;101983.66;6276515;22;45257;-73
2023/04/09 02:36:55;;;;;;;;;40.75;37.00;;;;;7.97;62.74;101985.41;6276636;22;45229;-73
2023/04/09 02:39:20;;;;;;;;;48.50;35.50;;;;;7.87;63.11;101968.22;6248423;22;52461;-72
2023/04/09 02:41:45;;;;;;;;;39.75;36.25;;;;;7.94;63.22;101980.88;6276591;22;45403;-72
2023/04/09 02:44:11;;;;;;;;;42.25;36.75;;;;;7.88;63.05;101963.84;6276465;22;49305;-73
2023/04/09 02:46:37;;;;;;;;;40.50;35.00;;;;;7.85;62.78;101965.47;6276155;22;45074;-72
2023/04/09 02:49:03;;;;;;;;;38.50;34.75;;;;;7.91;62.56;101977.19;6277081;22;45228;-72
2023/04/09 02:51:28;;;;;;;;;43.25;37.25;;;;;7.87;62.68;101984.00;6277238;22;45187;-73
2023/04/09 02:53:53;;;;;;;;;47.00;38.75;;;;;7.87;62.97;101981.38;6278372;22;45104;-72
2023/04/09 02:56:19;;;;;;;;;53.25;43.00;;;;;7.85;62.98;101981.28;6277388;22;45254;-73
2023/04/09 02:58:44;;;;;;;;;44.00;38.25;;;;;7.76;63.79;101966.72;6277687;22;45240;-72
2023/04/09 03:01:10;;;;;;;;;48.25;38.00;;;;;7.75;63.21;101959.63;6277598;22;47850;-72
2023/04/09 03:03:36;;;;;;;;;45.25;39.75;;;;;7.81;63.39;101981.94;6278305;22;45310;-72
2023/04/09 03:06:01;;;;;;;;;46.75;39.75;;;;;7.72;63.39;101952.47;6277628;22;45325;-73
2023/04/09 03:08:27;;;;;;;;;53.75;39.75;;;;;7.74;63.38;101963.09;6278452;22;45241;-72
2023/04/09 03:10:52;;;;;;;;;55.00;44.50;;;;;7.68;63.48;101952.25;6277293;22;45454;-72
2023/04/09 03:13:17;;;;;;;;;50.75;38.75;;;;;7.73;63.19;101964.84;6277766;22;56957;-71
2023/04/09 03:15:43;;;;;;;;;51.75;41.00;;;;;7.63;62.83;101950.25;6277393;22;45237;-72
2023/04/09 03:18:08;;;;;;;;;46.50;38.75;;;;;7.59;63.46;101950.91;6278389;22;45387;-72
2023/04/09 03:20:37;;;;;;;;;53.75;42.25;;;;;7.68;63.10;101965.41;6277700;22;45429;-71
2023/04/09 03:23:02;;;;;;;;;46.50;38.25;;;;;7.58;63.65;101949.09;6277750;22;45256;-71
2023/04/09 03:25:28;;;;;;;;;48.00;37.25;;;;;7.59;63.58;101947.38;6277644;22;45163;-71
2023/04/09 03:27:53;;;;;;;;;42.75;37.75;;;;;7.62;63.05;101964.25;6250236;22;45296;-71
2023/04/09 03:30:18;;;;;;;;;54.00;40.25;;;;;7.55;63.88;101951.56;6249279;22;45568;-71
2023/04/09 03:32:44;;;;;;;;;53.00;39.25;;;;;7.57;62.25;101951.66;6277967;22;46258;-71
2023/04/09 03:35:09;;;;;;;;;42.75;34.00;;;;;7.54;63.90;101956.75;6277634;22;45221;-72
2023/04/09 03:37:35;;;;;;;;;53.75;40.50;;;;;7.54;63.72;101960.28;6278193;22;45231;-73
2023/04/09 03:40:00;;;;;;;;;44.25;39.50;;;;;7.46;63.23;101942.25;6277772;22;45407;-73
2023/04/09 03:42:25;;;;;;;;;48.00;41.25;;;;;7.45;64.13;101950.94;6278159;22;45379;-72
2023/04/09 03:44:54;;;;;;;;;54.25;43.00;;;;;7.40;63.53;101943.72;6249791;22;45580;-72
2023/04/09 03:47:19;;;;;;;;;53.25;41.25;;;;;7.44;64.15;101943.91;6278111;22;45327;-72
2023/04/09 03:49:44;;;;;;;;;43.75;38.25;;;;;7.45;64.10;101945.69;6277868;22;45214;-72
2023/04/09 03:52:10;;;;;;;;;43.75;39.00;;;;;7.22;64.04;101920.75;6278048;22;45286;-72
2023/04/09 03:54:35;;;;;;;;;44.00;38.00;;;;;7.42;64.08;101940.25;6277507;22;47883;-72
2023/04/09 03:57:02;;;;;;;;;54.50;41.25;;;;;7.40;63.71;101945.47;6277100;22;46997;-72
2023/04/09 03:59:27;;;;;;;;;33.25;28.50;;;;;7.29;64.46;101934.34;6277147;22;45438;-71
2023/04/09 04:01:53;;;;;;;;;52.75;42.25;;;;;7.27;63.72;101928.06;6277766;22;46030;-71
2023/04/09 04:04:18;;;;;;;;;51.50;40.75;;;;;7.34;64.57;101943.41;6249682;22;45189;-72
2023/04/09 04:06:43;;;;;;;;;52.00;41.75;;;;;7.23;64.41;101923.47;6277693;22;45190;-71
2023/04/09 04:09:09;;;;;;;;;51.75;40.75;;;;;7.30;64.91;101940.50;6277945;22;45177;-72
2023/04/09 04:11:34;;;;;;;;;57.25;44.50;;;;;7.23;64.38;101925.22;6276279;22;45147;-72
2023/04/09 04:13:59;;;;;;;;;47.25;41.25;;;;;7.23;64.45;101927.84;6277676;22;45142;-72
2023/04/09 04:16:25;;;;;;;;;54.00;42.50;;;;;7.24;64.70;101930.53;6277432;22;45488;-72
2023/04/09 04:18:50;;;;;;;;;54.00;42.75;;;;;7.11;64.99;101915.81;6278111;22;45356;-71
2023/04/09 04:21:16;;;;;;;;;52.00;42.50;;;;;7.14;64.11;101931.75;6277560;22;45951;-71
2023/04/09 04:23:41;;;;;;;;;47.50;41.00;;;;;7.11;64.60;101928.97;6277164;22;45307;-72
2023/04/09 04:26:11;;;;;;;;;52.25;41.25;;;;;7.10;64.65;101935.03;6277319;22;45252;-72
2023/04/09 04:28:39;;;;;;;;;53.25;41.25;;;;;7.07;63.99;101940.09;6277066;22;45323;-72
2023/04/09 04:31:12;;;;;;;;;41.25;37.00;;;;;7.03;64.35;101930.25;6276816;22;45230;-72
2023/04/09 04:33:38;;;;;;;;;42.75;36.25;;;;;7.05;64.31;101943.47;6248962;22;45193;-71
2023/04/09 04:36:05;;;;;;;;;49.50;40.00;;;;;6.93;64.45;101922.66;6277574;22;45261;-71
2023/04/09 04:38:30;;;;;;;;;56.00;45.00;;;;;6.94;65.21;101930.59;6277630;22;45312;-71
2023/04/09 04:40:56;;;;;;;;;50.50;41.50;;;;;6.89;64.56;101933.78;6277261;22;45225;-71
2023/04/09 04:43:21;;;;;;;;;51.25;42.75;;;;;6.88;64.81;101938.16;6276941;22;57653;-71
2023/04/09 04:45:46;;;;;;;;;50.00;40.00;;;;;6.89;65.65;101939.97;6277369;22;45283;-72
2023/04/09 04:48:12;;;;;;;;;54.75;42.00;;;;;6.90;65.28;101949.66;6277532;22;45404;-71
2023/04/09 04:50:37;;;;;;;;;51.50;42.50;;;;;6.89;65.08;101941.66;6277152;22;46027;-72
2023/04/09 04:53:02;;;;;;;;;47.50;39.50;;;;;6.83;64.77;101944.84;6277660;22;45299;-72
2023/04/09 04:55:28;;;;;;;;;48.00;39.75;;;;;6.84;65.54;101944.06;6277598;22;45212;-71
2023/04/09 04:57:53;;;;;;;;;47.50;36.75;;;;;6.76;65.02;101941.81;6277356;22;45300;-71
2023/04/09 05:00:18;;;;;;;;;52.25;41.25;;;;;6.72;65.77;101938.06;6276770;22;46586;-72
2023/04/09 05:02:44;;;;;;;;;54.75;42.25;;;;;6.68;65.74;101934.38;6277199;22;45274;-71
2023/04/09 05:05:09;;;;;;;;;52.25;39.75;;;;;6.77;64.95;101954.13;6276898;22;45237;-71
2023/04/09 05:07:35;;;;;;;;;51.50;42.00;;;;;6.65;66.40;101943.81;6277109;22;45283;-71
2023/04/09 05:10:00;;;;;;;;;44.00;37.75;;;;;6.68;65.39;101951.84;6277175;22;45607;-72
2023/04/09 05:12:25;;;;;;;;;53.00;40.75;;;;;6.62;64.81;101955.03;6277776;22;45255;-72
2023/04/09 05:14:51;;;;;;;;;55.00;42.50;;;;;6.60;66.20;101946.16;6277090;22;45642;-71
2023/04/09 05:17:16;;;;;;;;;55.75;43.25;;;;;6.66;66.87;101964.88;6277664;22;45267;-72
2023/04/09 05:19:41;;;;;;;;;46.25;37.50;;;;;6.61;66.00;101958.50;6276809;22;52070;-72
2023/04/09 05:22:06;;;;;;;;;56.75;43.50;;;;;6.50;66.12;101936.84;6276880;22;45083;-72
2023/04/09 05:24:32;;;;;;;;;49.25;40.25;;;;;6.50;66.26;101949.06;6277320;22;45229;-73
2023/04/09 05:26:57;;;;;;;;;55.25;41.75;;;;;6.59;65.96;101961.84;6277147;22;45212;-72
2023/04/09 05:29:22;;;;;;;;;50.00;39.00;;;;;6.50;66.17;101952.59;6277111;22;46342;-71
2023/04/09 05:31:48;;;;;;;;;49.00;42.00;;;;;6.64;66.10;101976.16;6277598;22;45245;-72
2023/04/09 05:34:13;;;;;;;;;48.50;41.00;;;;;6.64;65.77;101973.53;6249679;22;45686;-72
2023/04/09 05:36:38;;;;;;;;;58.00;45.25;;;;;6.58;66.42;101967.88;6277270;22;45198;-72
2023/04/09 05:39:04;;;;;;;;;54.25;42.75;;;;;6.61;65.54;101968.06;6277447;22;45189;-72
2023/04/09 05:41:29;;;;;;;;;52.75;39.00;;;;;6.66;66.80;101978.03;6276067;22;45167;-72
2023/04/09 05:43:54;;;;;;;;;56.50;40.75;;;;;6.55;66.44;101957.19;6275585;22;45672;-72
2023/04/09 05:46:20;;;;;;;;;54.00;41.75;;;;;6.61;66.21;101966.38;6273093;22;47594;-73
2023/04/09 05:48:45;;;;;;;;;50.75;42.00;;;;;6.69;66.16;101987.81;6276864;22;45273;-73
2023/04/09 05:51:11;;;;;;;;;47.00;39.50;;;;;6.70;66.28;101990.56;6276843;22;45221;-73
2023/04/09 05:53:36;;;;;;;;;54.25;44.00;;;;;6.71;66.88;101979.22;6249577;22;45173;-72
2023/04/09 05:56:01;;;;;;;;;58.00;41.25;;;;;6.72;66.36;101978.41;6276574;22;45352;-72
2023/04/09 05:58:27;;;;;;;;;57.50;44.25;;;;;6.72;65.72;101977.47;6276693;22;45333;-72
2023/04/09 06:00:53;;;;;;;;;56.50;44.00;;;;;6.73;65.96;101979.31;6248159;22;45252;-72
2023/04/09 06:03:19;;;;;;;;;54.00;42.75;;;;;6.72;65.82;101977.47;6276880;22;45317;-72
2023/04/09 06:05:45;;;;;;;;;54.00;41.75;;;;;6.68;66.14;101965.91;6248284;22;45921;-72
2023/04/09 06:08:11;;;;;;;;;57.00;43.25;;;;;6.77;65.92;101977.75;6276737;22;45249;-73
2023/04/09 06:10:36;;;;;;;;;60.50;45.00;;;;;6.84;65.22;101991.38;6276508;22;45189;-72
2023/04/09 06:13:02;;;;;;;;;48.75;43.00;;;;;6.79;65.83;101976.13;6277025;22;45140;-72
2023/04/09 06:15:27;;;;;;;;;55.50;39.50;;;;;6.78;66.02;101966.44;6276099;22;45160;-72
2023/04/09 06:17:52;;;;;;;;;55.00;45.50;;;;;6.65;66.71;101933.28;6275878;22;57668;-72
2023/04/09 06:20:18;;;;;;;;;59.75;46.00;;;;;6.93;65.90;101978.75;6276386;22;45082;-71
2023/04/09 06:22:43;;;;;;;;;51.50;44.00;;;;;6.83;65.79;101951.84;6276901;22;45245;-71
2023/04/09 06:25:09;;;;;;;;;60.50;43.75;;;;;7.12;65.75;101991.25;6248183;22;50966;-72
2023/04/09 06:27:34;;;;;;;;;56.75;43.50;;;;;7.09;64.54;101970.03;6277362;22;46029;-71
2023/04/09 06:29:59;;;;;;;;;58.50;45.75;;;;;7.23;66.13;101985.69;6276874;22;45216;-72
2023/04/09 06:32:25;;;;;;;;;58.00;44.50;;;;;7.33;65.73;101982.75;6276726;22;45157;-72
2023/04/09 06:34:50;;;;;;;;;56.00;43.50;;;;;7.40;65.74;101988.44;6277709;22;45269;-72
2023/04/09 06:37:15;;;;;;;;;58.75;46.00;;;;;7.42;64.83;101972.72;6278323;22;45253;-72
2023/04/09 06:39:41;;;;;;;;;57.25;44.00;;;;;7.57;66.17;101985.84;6249885;22;45213;-72
2023/04/09 06:42:06;;;;;;;;;58.50;46.75;;;;;7.69;66.11;101993.53;6277770;22;45194;-72
2023/04/09 06:44:35;;;;;;;;;55.50;44.75;;;;;7.84;65.49;102000.53;6249543;22;46451;-72
2023/04/09 06:47:01;;;;;;;;;53.25;45.00;;;;;7.94;64.68;101975.59;6277712;22;45299;-73
2023/04/09 06:49:26;;;;;;;;;66.00;49.00;;;;;8.14;64.09;101986.28;6276740;22;45276;-74
2023/04/09 06:51:54;;;;;;;;;60.75;50.00;;;;;8.26;64.11;101984.28;6278015;22;45253;-75
2023/04/09 06:54:20;;;;;;;;;59.75;46.75;;;;;8.30;64.49;101966.13;6277721;22;45268;-74
2023/04/09 06:56:45;;;;;;;;;60.00;46.25;;;;;8.62;63.76;101994.97;6277557;22;45216;-73
2023/04/09 06:59:11;;;;;;;;;61.50;47.50;;;;;8.73;63.78;101981.53;6249630;22;45278;-73
2023/04/09 07:01:37;;;;;;;;;66.00;49.75;;;;;8.85;62.67;101986.53;6277585;22;45473;-73
2023/04/09 07:04:02;;;;;;;;;52.50;42.75;;;;;9.02;62.51;101994.34;6249253;22;45835;-72
2023/04/09 07:06:28;;;;;;;;;57.25;46.75;;;;;9.19;63.29;101993.47;6277221;22;46102;-74
2023/04/09 07:08:53;;;;;;;;;59.25;45.00;;;;;9.35;61.38;101987.19;6249880;22;45291;-72
2023/04/09 07:11:19;;;;;;;;;64.00;47.00;;;;;9.34;61.81;101952.00;6277762;22;45296;-71
2023/04/09 07:13:44;;;;;;;;;56.00;45.25;;;;;9.75;61.34;101995.28;6249526;22;46236;-71
2023/04/09 07:16:09;;;;;;;;;52.75;42.75;;;;;9.98;62.33;101987.53;6249087;22;46887;-72
2023/04/09 07:18:35;;;;;;;;;57.25;45.50;;;;;10.14;61.48;101989.09;6277865;22;45301;-72
2023/04/09 07:21:00;;;;;;;;;54.00;43.50;;;;;10.37;60.73;101998.13;6277740;22;45233;-71
2023/04/09 07:23:26;;;;;;;;;54.25;43.00;;;;;10.47;60.26;101982.75;6277654;22;45291;-71
2023/04/09 07:25:51;;;;;;;;;49.50;42.25;;;;;10.68;59.41;101979.22;6277238;22;45288;-71
2023/04/09 07:28:16;;;;;;;;;54.75;42.25;;;;;10.93;59.41;101989.97;6275077;22;45345;-71
2023/04/09 07:30:42;;;;;;;;;51.50;42.00;;;;;11.16;59.05;101983.00;6275854;22;45182;-71
2023/04/09 07:33:07;;;;;;;;;54.75;41.25;;;;;11.33;58.59;101969.53;6276935;22;45434;-71
2023/04/09 07:35:33;;;;;;;;;51.75;41.00;;;;;11.46;58.34;101963.00;6277143;22;45274;-74
2023/04/09 07:37:59;;;;;;;;;50.00;41.25;;;;;11.77;58.53;101986.28;6276597;22;45217;-71
2023/04/09 07:40:24;;;;;;;;;53.25;40.00;;;;;11.99;57.73;101990.69;6277550;22;45162;-71
2023/04/09 07:42:49;;;;;;;;;55.00;44.25;;;;;12.24;57.68;101995.16;6249976;22;47204;-71
2023/04/09 07:45:15;;;;;;;;;54.50;41.00;;;;;12.39;56.61;101981.53;6276468;22;46682;-71
2023/04/09 07:47:41;;;;;;;;;51.50;39.25;;;;;12.59;57.07;101990.19;6249650;22;45700;-71
2023/04/09 07:50:07;;;;;;;;;52.75;43.25;;;;;12.69;57.57;101995.88;6274917;22;44633;-71
2023/04/09 07:52:32;;;;;;;;;45.75;38.00;;;;;12.71;56.42;101982.66;6277526;22;45257;-71
2023/04/09 07:54:58;;;;;;;;;50.50;42.25;;;;;12.75;56.79;101977.50;6276833;22;46037;-71
2023/04/09 07:57:23;;;;;;;;;54.00;44.50;;;;;12.84;55.39;101989.28;6277332;22;45235;-72
2023/04/09 07:59:48;;;;;;;;;49.50;41.25;;;;;12.92;55.47;101983.41;6248859;22;45332;-72
2023/04/09 08:02:14;;;;;;;;;55.00;42.25;;;;;13.15;55.29;101975.28;6277265;22;45244;-71
2023/04/09 08:04:39;;;;;;;;;51.75;41.25;;;;;13.31;53.48;101985.59;6277101;22;45785;-72
2023/04/09 08:07:05;;;;;;;;;52.50;40.25;;;;;13.52;54.72;101984.47;6277214;22;45250;-72
2023/04/09 08:09:30;;;;;;;;;50.00;41.50;;;;;13.64;53.48;101979.56;6277328;22;45558;-72
2023/04/09 08:11:56;;;;;;;;;53.25;42.50;;;;;13.94;53.50;101979.53;6277182;22;45403;-72
2023/04/09 08:14:21;;;;;;;;;50.75;39.75;;;;;14.12;54.17;101973.88;6276778;22;45236;-72
2023/04/09 08:16:48;;;;;;;;;52.25;43.50;;;;;14.42;53.38;101987.13;6277187;22;45220;-72
2023/04/09 08:19:16;;;;;;;;;52.50;41.50;;;;;14.46;51.36;101956.19;6275485;22;45430;-72
2023/04/09 08:21:47;;;;;;;;;58.75;44.25;;;;;14.89;53.03;101981.31;6277051;22;45240;-72
2023/04/09 08:24:13;;;;;;;;;48.75;39.75;;;;;15.16;50.36;101973.09;6277448;22;45425;-72
2023/04/09 08:26:40;;;;;;;;;51.75;41.50;;;;;15.50;51.28;101980.13;6277124;22;45399;-73
2023/04/09 08:29:06;;;;;;;;;58.50;42.75;;;;;15.82;50.00;101979.97;6277256;22;45247;-72
2023/04/09 08:31:32;;;;;;;;;51.50;41.50;;;;;16.12;49.30;101977.06;6276179;22;45256;-72
2023/04/09 08:33:57;;;;;;;;;51.00;38.50;;;;;16.37;49.31;101974.88;6275712;22;45311;-72
2023/04/09 08:36:23;;;;;;;;;52.25;42.00;;;;;16.58;48.61;101969.03;6277227;22;45274;-73
2023/04/09 08:38:48;;;;;;;;;46.50;38.00;;;;;16.86;49.47;101974.06;6277646;22;45261;-71
2023/04/09 08:41:23;;;;;;;;;51.25;42.25;;;;;17.08;48.79;101967.28;6277180;22;45242;-72
2023/04/09 08:43:50;;;;;;;;;55.50;43.50;;;;;17.17;45.93;101967.44;6277020;22;45315;-73
2023/04/09 08:46:16;;;;;;;;;52.75;44.50;;;;;17.38;48.26;101965.97;6273611;22;45343;-74
2023/04/09 08:48:45;;;;;;;;;52.75;43.00;;;;;17.56;47.04;101952.88;6275845;22;44780;-72
2023/04/09 08:51:21;;;;;;;;;53.00;42.50;;;;;17.78;47.93;101961.19;6276031;22;45335;-72
2023/04/09 08:53:52;;;;;;;;;55.25;43.75;;;;;18.01;45.82;101953.47;6276539;22;45220;-72
2023/04/09 08:56:18;;;;;;;;;53.50;42.00;;;;;18.22;45.57;101948.38;6275817;22;45171;-71
2023/04/09 08:58:45;;;;;;;;;46.75;37.50;;;;;18.46;43.37;101961.16;6277106;22;45247;-71
2023/04/09 09:01:39;;;;;;;;;50.50;40.75;;;;;18.64;44.60;101960.41;6276673;22;45198;-71
2023/04/09 09:04:07;;;;;;;;;50.00;38.75;;;;;18.79;43.79;101951.66;6243558;22;45252;-71
2023/04/09 09:06:35;;;;;;;;;56.25;44.25;;;;;18.67;42.77;101944.38;6276547;22;45328;-72
2023/04/09 09:09:07;;;;;;;;;52.25;41.75;;;;;18.86;44.56;101949.94;6277151;22;45253;-71
2023/04/09 09:11:35;;;;;;;;;52.25;42.50;;;;;19.01;44.62;101944.69;6276983;22;45262;-72
2023/04/09 09:14:06;;;;;;;;;51.50;42.75;;;;;19.17;41.58;101937.69;6274731;22;45336;-72
2023/04/09 09:16:39;;;;;;;;;50.50;40.75;;;;;19.53;41.01;101941.50;6276380;22;45198;-73
2023/04/09 09:19:05;;;;;;;;;52.00;41.00;;;;;19.77;42.00;101949.69;6275760;22;45201;-73
2023/04/09 09:21:30;;;;;;;;;48.00;39.25;;;;;19.82;43.74;101930.94;6275967;22;45390;-73
2023/04/09 09:23:56;;;;;;;;;49.25;38.00;;;;;19.91;39.59;101936.31;6277092;22;45332;-74
2023/04/09 09:26:28;;;;;;;;;54.50;42.25;;;;;19.90;42.31;101940.81;6276760;22;45202;-74
2023/04/09 09:28:57;;;;;;;;;50.25;42.00;;;;;19.96;42.37;101944.41;6277020;22;45465;-74
2023/04/09 09:31:24;;;;;;;;;49.00;40.50;;;;;19.83;40.25;101943.47;6275598;22;45359;-74
2023/04/09 09:33:50;;;;;;;;;49.00;39.25;;;;;20.03;42.33;101940.88;6276881;22;45913;-74
2023/04/09 09:36:30;;;;;;;;;48.25;37.00;;;;;20.40;40.03;101936.47;6275621;22;45315;-74
2023/04/09 09:38:57;;;;;;;;;43.75;36.00;;;;;20.73;41.33;101919.53;6275056;22;45229;-74
2023/04/09 09:41:23;;;;;;;;;45.67;35.67;;;;;20.98;38.40;101920.44;6276372;22;45355;-74
2023/04/09 09:43:49;;;;;;;;;46.67;37.00;;;;;21.23;40.94;101915.03;6276994;22;46155;-74
2023/04/09 09:46:15;;;;;;;;;43.67;35.67;;;;;21.33;38.92;101911.41;6276731;22;45319;-75
2023/04/09 09:48:41;;;;;;;;;46.00;35.33;;;;;21.47;37.43;101921.28;6277173;22;45257;-75
2023/04/09 09:51:10;;;;;;;;;46.67;38.33;;;;;21.61;38.11;101905.97;6275676;22;45255;-74
2023/04/09 09:53:37;;;;;;;;;44.33;37.67;;;;;21.87;36.82;101904.09;6276376;22;45203;-74
2023/04/09 09:56:05;;;;;;;;;47.33;37.33;;;;;22.13;37.04;101912.03;6273961;22;45361;-73
2023/04/09 09:58:37;;;;;;;;;37.33;33.00;;;;;22.30;39.36;101897.59;6276191;22;45259;-74
2023/04/09 10:01:09;;;;;;;;;41.67;35.00;;;;;22.31;37.11;101913.72;6276269;22;45244;-74
2023/04/09 10:03:37;;;;;;;;;44.33;33.67;;;;;22.25;35.40;101902.09;6250220;22;45917;-73
2023/04/09 10:06:03;;;;;;;;;36.67;33.67;;;;;22.45;36.22;101900.16;6276870;22;45276;-74
2023/04/09 10:08:32;;;;;;;;;38.33;31.33;;;;;22.70;35.82;101898.16;6278270;22;45233;-73
2023/04/09 10:10:57;;;;;;;;;29.67;25.00;;;;;22.88;35.42;101880.97;6277283;22;45198;-74
2023/04/09 10:13:34;;;;;;;;;26.00;26.00;;;;;23.13;35.02;101896.91;6277692;22;45467;-74
2023/04/09 10:16:00;;;;;;;;;25.33;21.67;;;;;23.26;35.20;101897.69;6277831;22;45269;-74
2023/04/09 10:18:26;;;;;;;;;19.00;19.00;;;;;23.38;36.15;101898.44;6277598;22;45185;-74
2023/04/09 10:20:57;;;;;;;;;20.00;15.67;;;;;23.41;35.26;101897.50;6277646;22;45173;-73
2023/04/09 10:23:39;;;;;;;;;21.00;19.67;;;;;23.47;36.56;101889.38;6278279;22;45194;-73
2023/04/09 10:26:04;;;;;;;;;17.33;17.00;;;;;23.54;31.57;101891.06;6277323;22;45280;-75
2023/04/09 10:28:30;;;;;;;;;17.33;15.00;;;;;23.68;32.06;101880.09;6278069;22;45260;-75
2023/04/09 10:30:57;;;;;;;;;13.67;13.00;;;;;23.60;35.07;101880.19;6277133;22;45363;-74
2023/04/09 10:33:25;;;;;;;;;12.33;9.00;;;;;23.76;31.59;101891.72;6278160;22;46111;-74
2023/04/09 10:35:52;;;;;;;;;15.33;14.33;;;;;23.96;30.71;101879.75;6275580;22;45217;-74
2023/04/09 10:38:37;;;;;;;;;16.33;11.00;;;;;24.02;32.93;101875.16;6276978;22;45336;-75
2023/04/09 10:41:17;;;;;;;;;12.33;11.67;;;;;24.12;32.95;101881.34;6277783;22;45390;-73
2023/04/09 10:43:46;;;;;;;;;10.67;9.00;;;;;23.85;31.04;101878.09;6250589;22;45412;-72
2023/04/09 10:46:25;;;;;;;;;12.67;12.33;;;;;23.91;30.56;101866.31;6277107;22;45105;-73
2023/04/09 10:49:14;;;;;;;;;11.00;10.33;;;;;24.00;30.79;101850.00;6277675;22;45271;-72
2023/04/09 10:51:40;;;;;;;;;10.33;10.33;;;;;23.96;28.17;101869.84;6277157;22;45498;-72
2023/04/09 10:54:31;;;;;;;;;9.00;9.00;;;;;24.21;30.48;101864.09;6277963;22;45221;-74
2023/04/09 10:57:05;;;;;;;;;12.67;11.67;;;;;24.37;29.50;101864.72;6277474;22;45252;-73
2023/04/09 10:59:31;;;;;;;;;16.67;14.67;;;;;24.56;29.65;101855.44;6277710;22;45212;-74
2023/04/09 11:01:56;;;;;;;;;14.67;13.00;;;;;24.71;28.55;101844.34;6277919;22;45237;-75
2023/04/09 11:04:34;;;;;;;;;19.33;17.67;;;;;24.96;29.60;101866.44;6277948;22;45258;-74
2023/04/09 11:07:02;;;;;;;;;61.00;49.75;;;;;25.18;30.96;101868.78;6277620;22;45189;-75
2023/04/09 11:09:27;;;;;;;;;23.33;23.00;;;;;25.04;27.90;101841.03;6249551;22;45299;-75
2023/04/09 11:11:53;;;;;;;;;17.00;15.00;;;;;25.16;31.27;101863.41;6277391;22;53998;-74
2023/04/09 11:14:19;;;;;;;;;9.00;9.00;;;;;25.27;28.59;101857.78;6278059;22;46002;-74